Time;durP1;ratioP1;P1;durP2;ratioP2;P2;SDS_P1;SDS_P2;PMS_P1;PMS_P2;Temp;Humidity;BMP_temperature;BMP_pressure;BME280_temperature;BME280_humidity;BME280_pressure;Samples;Min_cycle;Max_cycle;Signal;HPM_P1;HPM_P2
2020/12/28 00:02:04;;;;;;;20.87;12.63;;;;;;;0.80;73.68;97119.55;2152723;83;21131;-78
2020/12/28 00:05:06;;;;;;;18.20;10.90;;;;;;;0.88;73.45;97119.75;2152687;83;21123;-78
2020/12/28 00:08:07;;;;;;;18.80;11.07;;;;;;;0.94;73.36;97114.75;2152269;83;21146;-78
2020/12/28 00:11:10;;;;;;;15.53;9.17;;;;;;;1.01;73.32;97114.45;2152382;82;21141;-78
2020/12/28 00:14:11;;;;;;;20.23;10.70;;;;;;;1.05;73.13;97111.98;2152124;83;21108;-78
2020/12/28 00:17:12;;;;;;;17.30;10.10;;;;;;;1.08;73.15;97115.91;2152518;82;21088;-78
2020/12/28 00:20:13;;;;;;;20.83;11.30;;;;;;;1.12;73.11;97110.00;2152690;82;21127;-79
2020/12/28 00:23:14;;;;;;;19.57;10.87;;;;;;;1.17;73.08;97100.68;2153055;82;21186;-78
2020/12/28 00:26:15;;;;;;;19.80;10.80;;;;;;;1.26;73.07;97094.86;2153346;82;21413;-78
2020/12/28 00:29:16;;;;;;;18.97;11.90;;;;;;;1.32;73.11;97087.69;2152482;83;21123;-78
2020/12/28 00:32:17;;;;;;;19.43;10.87;;;;;;;1.40;72.95;97077.13;2152673;83;21111;-78
2020/12/28 00:35:18;;;;;;;14.50;9.90;;;;;;;1.43;72.78;97074.20;2153039;82;21104;-78
2020/12/28 00:38:19;;;;;;;17.83;10.77;;;;;;;1.46;72.74;97078.53;2152600;83;21123;-79
2020/12/28 00:41:21;;;;;;;16.33;9.90;;;;;;;1.50;72.73;97075.19;2152666;83;21162;-78
2020/12/28 00:44:22;;;;;;;17.30;10.27;;;;;;;1.54;72.66;97071.83;2152997;83;21119;-78
2020/12/28 00:47:23;;;;;;;16.30;9.43;;;;;;;1.55;72.58;97074.85;2152873;83;21112;-78
2020/12/28 00:50:24;;;;;;;16.97;10.40;;;;;;;1.56;72.64;97067.58;2152929;83;21095;-78
2020/12/28 00:53:25;;;;;;;18.80;10.20;;;;;;;1.57;72.69;97064.17;2152392;81;21143;-78
2020/12/28 00:56:26;;;;;;;18.67;10.60;;;;;;;1.58;72.58;97068.48;2152993;83;21185;-79
2020/12/28 00:59:27;;;;;;;17.13;10.00;;;;;;;1.60;72.72;97069.38;2152525;83;21154;-78
2020/12/28 01:02:28;;;;;;;13.10;9.63;;;;;;;1.65;72.71;97057.47;2152446;83;21158;-78
2020/12/28 01:05:29;;;;;;;17.57;9.57;;;;;;;1.68;72.73;97066.52;2152565;82;21413;-78
2020/12/28 01:08:30;;;;;;;16.50;8.93;;;;;;;1.69;72.74;97051.53;2152366;83;21130;-78
2020/12/28 01:11:32;;;;;;;14.27;8.80;;;;;;;1.72;72.74;97043.00;2152690;82;21126;-77
2020/12/28 01:14:33;;;;;;;13.60;7.63;;;;;;;1.75;73.09;97032.80;2152374;82;21091;-78
2020/12/28 01:17:34;;;;;;;16.00;8.47;;;;;;;1.77;73.25;97024.69;2152365;82;21123;-79
2020/12/28 01:20:35;;;;;;;11.60;7.40;;;;;;;1.78;73.16;97018.28;2152410;82;21123;-78
2020/12/28 01:23:36;;;;;;;11.27;7.93;;;;;;;1.78;73.41;97008.00;2152048;83;21167;-78
2020/12/28 01:26:37;;;;;;;14.20;7.40;;;;;;;1.82;73.51;96996.91;2152203;83;21119;-78
2020/12/28 01:29:38;;;;;;;14.87;7.83;;;;;;;1.88;73.68;96996.15;2152287;83;21123;-78
2020/12/28 01:32:39;;;;;;;10.53;7.23;;;;;;;1.90;73.66;96982.89;2152380;83;21087;-78
2020/12/28 01:35:40;;;;;;;10.93;6.80;;;;;;;1.91;73.67;96984.20;2152733;83;21095;-78
2020/12/28 01:38:44;;;;;;;9.67;6.27;;;;;;;1.95;74.07;96982.95;2152638;82;21397;-79
2020/12/28 01:41:45;;;;;;;10.90;6.07;;;;;;;1.96;74.02;96981.70;2152668;82;21566;-78
2020/12/28 01:44:46;;;;;;;6.73;5.43;;;;;;;2.01;74.71;96967.61;2153107;82;21127;-79
2020/12/28 01:47:48;;;;;;;8.50;5.70;;;;;;;2.05;74.55;96975.83;2152943;83;21134;-78
2020/12/28 01:50:49;;;;;;;7.07;5.20;;;;;;;2.07;74.72;96961.27;2152864;82;21401;-78
2020/12/28 01:53:50;;;;;;;6.43;5.33;;;;;;;2.13;75.21;96961.36;2156857;82;21173;-78
2020/12/28 01:56:51;;;;;;;10.17;5.90;;;;;;;2.19;74.81;96954.59;2168798;82;21126;-78
2020/12/28 01:59:52;;;;;;;5.60;4.43;;;;;;;2.20;74.73;96940.02;2169041;82;21130;-78
2020/12/28 02:02:56;;;;;;;6.97;5.27;;;;;;;2.23;75.63;96917.75;2170328;81;21158;-78
2020/12/28 02:05:57;;;;;;;7.03;5.25;;;;;;;2.27;75.04;96922.94;2176264;82;21090;-78
2020/12/28 02:09:01;;;;;;;7.07;5.17;;;;;;;2.27;75.17;96910.07;2175934;82;21118;-79
2020/12/28 02:12:02;;;;;;;6.83;4.93;;;;;;;2.27;75.42;96912.22;2175987;82;21364;-78
2020/12/28 02:15:03;;;;;;;5.90;4.80;;;;;;;2.29;75.66;96913.11;2175956;82;21117;-78
2020/12/28 02:18:04;;;;;;;8.93;4.10;;;;;;;2.29;75.48;96901.52;2176028;82;21090;-78
2020/12/28 02:21:05;;;;;;;6.40;4.80;;;;;;;2.29;76.14;96898.95;2175930;82;21174;-78
2020/12/28 02:24:06;;;;;;;6.43;5.00;;;;;;;2.31;75.97;96898.97;2175745;82;21394;-78
2020/12/28 02:27:07;;;;;;;6.97;4.60;;;;;;;2.31;75.94;96884.38;2175697;82;21110;-78
2020/12/28 02:30:08;;;;;;;6.27;4.17;;;;;;;2.32;75.88;96898.98;2175995;82;21126;-79
2020/12/28 02:33:09;;;;;;;6.37;4.73;;;;;;;2.31;75.98;96877.95;2176117;82;21372;-78
2020/12/28 02:36:10;;;;;;;6.03;4.47;;;;;;;2.35;76.28;96874.99;2175883;82;21122;-78
2020/12/28 02:39:11;;;;;;;7.10;5.10;;;;;;;2.37;76.06;96878.45;2175684;82;21106;-78
2020/12/28 02:42:12;;;;;;;6.03;4.50;;;;;;;2.37;76.16;96881.89;2176036;82;21158;-78
2020/12/28 02:45:13;;;;;;;7.03;4.93;;;;;;;2.42;75.97;96878.08;2176024;82;21424;-78
2020/12/28 02:48:15;;;;;;;6.70;4.70;;;;;;;2.45;76.04;96878.13;2175705;82;21130;-79
2020/12/28 02:51:16;;;;;;;6.83;4.40;;;;;;;2.45;75.90;96872.55;2175945;82;21113;-78
2020/12/28 02:54:17;;;;;;;5.90;4.87;;;;;;;2.46;76.08;96878.56;2181752;81;21142;-78
2020/12/28 02:57:18;;;;;;;7.27;5.10;;;;;;;2.47;75.97;96868.28;2195313;81;21368;-78
2020/12/28 03:00:19;;;;;;;7.03;5.27;;;;;;;2.48;76.26;96863.99;2195760;81;21114;-78
2020/12/28 03:03:20;;;;;;;5.87;4.63;;;;;;;2.46;76.32;96862.69;2195150;81;21162;-78
2020/12/28 03:06:21;;;;;;;5.63;4.57;;;;;;;2.45;76.64;96857.09;2196080;81;21139;-78
2020/12/28 03:09:25;;;;;;;4.87;4.07;;;;;;;2.47;76.72;96836.51;2191178;81;21090;-78
2020/12/28 03:12:26;;;;;;;6.85;5.20;;;;;;;2.47;76.57;96840.38;2176749;82;21395;-78
2020/12/28 03:15:27;;;;;;;5.10;4.40;;;;;;;2.45;76.90;96839.49;2176458;82;21090;-78
2020/12/28 03:18:28;;;;;;;5.47;4.30;;;;;;;2.44;77.02;96828.75;2176196;82;21122;-78
2020/12/28 03:21:30;;;;;;;4.97;4.07;;;;;;;2.43;76.92;96813.72;2176715;82;21163;-78
2020/12/28 03:24:31;;;;;;;4.87;4.07;;;;;;;2.41;76.97;96817.13;2176488;82;21091;-79
2020/12/28 03:27:32;;;;;;;8.83;5.43;;;;;;;2.40;77.03;96808.97;2176559;82;21102;-78
2020/12/28 03:30:33;;;;;;;5.30;4.50;;;;;;;2.39;77.26;96809.81;2176592;82;21126;-79
2020/12/28 03:33:36;;;;;;;5.53;3.70;;;;;;;2.40;77.15;96807.67;2176908;82;21122;-79
2020/12/28 03:36:37;;;;;;;4.90;4.13;;;;;;;2.43;77.46;96785.40;2176082;82;21126;-78
2020/12/28 03:39:38;;;;;;;5.50;3.70;;;;;;;2.45;77.71;96782.41;2176447;82;21110;-78
2020/12/28 03:42:39;;;;;;;4.87;3.53;;;;;;;2.46;77.46;96789.72;2175970;82;21154;-78
2020/12/28 03:45:41;;;;;;;4.47;3.73;;;;;;;2.48;77.73;96804.76;2175679;82;21122;-78
2020/12/28 03:48:42;;;;;;;4.70;3.37;;;;;;;2.49;77.52;96804.78;2176209;82;21141;-78
2020/12/28 03:51:43;;;;;;;5.77;3.53;;;;;;;2.49;77.46;96799.63;2175942;82;21138;-78
2020/12/28 03:54:44;;;;;;;4.33;3.33;;;;;;;2.52;77.66;96800.95;2176450;81;21404;-78
2020/12/28 03:57:45;;;;;;;5.27;3.87;;;;;;;2.55;77.43;96788.52;2175987;82;21110;-78
2020/12/28 04:00:46;;;;;;;3.73;3.33;;;;;;;2.56;77.61;96774.80;2175522;82;21126;-78
2020/12/28 04:03:48;;;;;;;3.90;3.50;;;;;;;2.60;78.01;96766.28;2174998;82;21126;-78
2020/12/28 04:06:49;;;;;;;5.20;2.80;;;;;;;2.63;77.92;96771.47;2176213;82;21118;-78
2020/12/28 04:09:52;;;;;;;3.63;3.30;;;;;;;2.65;77.76;96780.50;2176039;82;21172;-78
2020/12/28 04:12:53;;;;;;;3.40;3.00;;;;;;;2.66;77.46;96783.52;2176126;82;21106;-79
2020/12/28 04:15:54;;;;;;;3.90;3.50;;;;;;;2.70;77.83;96781.41;2176656;82;21210;-79
2020/12/28 04:18:55;;;;;;;3.80;3.40;;;;;;;2.71;77.73;96784.00;2176348;82;21369;-79
2020/12/28 04:21:57;;;;;;;3.60;3.30;;;;;;;2.75;77.66;96823.53;2175779;82;21158;-78
2020/12/28 04:24:58;;;;;;;3.63;2.90;;;;;;;2.77;77.56;96811.53;2175120;82;21718;-78
2020/12/28 04:31:36;;;;;;;3.93;3.53;;;;;;;2.85;77.49;96811.18;2174607;80;20991;-78
2020/12/28 04:34:37;;;;;;;4.03;3.23;;;;;;;2.89;77.58;96782.02;2175164;82;21432;-78
2020/12/28 04:37:38;;;;;;;4.67;3.53;;;;;;;2.89;77.50;96783.30;2174864;82;21146;-78
2020/12/28 04:40:39;;;;;;;4.87;3.10;;;;;;;2.91;77.43;96777.73;2174465;82;21424;-78
2020/12/28 04:43:40;;;;;;;5.83;3.87;;;;;;;2.94;77.40;96793.23;2173529;82;21178;-78
2020/12/28 04:46:42;;;;;;;5.00;3.30;;;;;;;2.93;77.36;96796.66;2173682;82;21244;-78
2020/12/28 04:49:44;;;;;;;4.10;3.17;;;;;;;2.93;77.49;96800.52;2173860;82;21082;-78
2020/12/28 04:52:46;;;;;;;4.90;3.50;;;;;;;2.95;77.57;96807.84;2173597;82;21148;-79
2020/12/28 04:55:47;;;;;;;5.97;3.80;;;;;;;2.96;77.51;96799.68;2157623;81;21138;-80
2020/12/28 04:58:48;;;;;;;4.10;3.40;;;;;;;2.92;77.73;96792.34;2147803;83;21131;-78
2020/12/28 05:01:49;;;;;;;4.07;3.53;;;;;;;2.93;77.77;96788.92;2148916;82;21175;-78
2020/12/28 05:04:50;;;;;;;4.27;3.67;;;;;;;2.93;77.79;96794.08;2150917;82;21215;-78
2020/12/28 05:07:51;;;;;;;4.23;3.63;;;;;;;2.93;77.77;96788.92;2150636;82;21331;-78
2020/12/28 05:10:52;;;;;;;3.73;2.93;;;;;;;2.91;78.06;96782.02;2150387;82;21142;-78
2020/12/28 05:13:53;;;;;;;3.80;3.30;;;;;;;2.90;77.94;96788.03;2150746;82;21169;-79
2020/12/28 05:16:54;;;;;;;3.87;3.10;;;;;;;2.90;78.25;96782.45;2150990;83;21342;-78
2020/12/28 05:19:55;;;;;;;3.20;2.90;;;;;;;2.89;77.97;96778.14;2150122;83;21393;-78
2020/12/28 05:22:57;;;;;;;3.67;3.10;;;;;;;2.91;77.94;96782.89;2150061;82;21281;-78
2020/12/28 05:25:58;;;;;;;4.07;3.23;;;;;;;2.90;77.93;96776.01;2149708;82;21138;-78
2020/12/28 05:28:59;;;;;;;6.23;3.20;;;;;;;2.90;77.87;96769.99;2149005;83;21147;-78
2020/12/28 05:32:00;;;;;;;4.60;4.00;;;;;;;2.89;77.96;96778.14;2148763;82;21123;-78
2020/12/28 05:35:01;;;;;;;5.10;4.07;;;;;;;2.87;77.80;96783.28;2148922;82;21812;-78
2020/12/28 05:38:02;;;;;;;6.67;4.10;;;;;;;2.82;78.34;96779.81;2148685;82;21131;-77
2020/12/28 05:41:03;;;;;;;6.50;4.60;;;;;;;2.74;77.95;96776.72;2149615;82;21119;-77
2020/12/28 05:44:04;;;;;;;5.60;4.60;;;;;;;2.66;77.86;96782.23;2149426;83;21142;-78
2020/12/28 05:47:06;;;;;;;6.93;5.27;;;;;;;2.56;78.26;96773.09;2148521;82;21237;-77
2020/12/28 05:50:07;;;;;;;7.83;5.70;;;;;;;2.48;78.01;96768.70;2149098;82;21250;-77
2020/12/28 05:53:08;;;;;;;7.00;5.53;;;;;;;2.41;78.07;96770.78;2148956;82;21119;-76
2020/12/28 05:56:09;;;;;;;7.83;5.83;;;;;;;2.38;78.30;96781.91;2172315;81;21272;-77
2020/12/28 05:59:10;;;;;;;8.33;5.77;;;;;;;3.01;78.98;96776.96;2171900;81;21257;-77
2020/12/28 06:02:11;;;;;;;9.63;7.00;;;;;;;2.87;77.22;96778.13;2171810;82;21276;-77
2020/12/28 06:05:12;;;;;;;9.40;7.13;;;;;;;2.64;77.75;96772.33;2172207;82;21126;-78
2020/12/28 06:08:13;;;;;;;9.43;7.03;;;;;;;2.43;77.62;96764.80;2172862;82;21118;-76
2020/12/28 06:11:16;;;;;;;9.30;6.90;;;;;;;3.29;78.64;96750.96;2172903;82;21245;-77
2020/12/28 06:14:17;;;;;;;7.40;6.20;;;;;;;3.02;76.58;96741.31;2172022;82;21241;-77
2020/12/28 06:17:18;;;;;;;6.60;5.90;;;;;;;2.70;76.97;96755.22;2173272;82;21245;-78
2020/12/28 06:20:19;;;;;;;7.90;5.60;;;;;;;2.51;77.45;96758.02;2172913;82;21150;-77
2020/12/28 06:23:20;;;;;;;6.97;5.30;;;;;;;2.39;78.29;96757.03;2172008;82;21795;-78
2020/12/28 06:26:21;;;;;;;7.10;5.20;;;;;;;2.31;78.31;96756.95;2172377;82;21111;-77
2020/12/28 06:29:22;;;;;;;6.67;5.20;;;;;;;2.29;79.04;96756.49;2172540;82;21759;-77
2020/12/28 06:32:23;;;;;;;6.77;4.83;;;;;;;2.25;78.82;96756.88;2171667;82;21146;-77
2020/12/28 06:35:24;;;;;;;6.83;5.23;;;;;;;2.24;79.34;96756.44;2172129;82;21134;-79
2020/12/28 06:38:25;;;;;;;6.40;4.90;;;;;;;2.27;79.16;96752.61;2173086;82;21228;-77
2020/12/28 06:41:27;;;;;;;7.37;4.67;;;;;;;2.28;79.07;96750.48;2173114;82;21182;-78
2020/12/28 06:44:27;;;;;;;6.83;5.60;;;;;;;2.28;79.47;96744.47;2172775;82;21499;-77
2020/12/28 06:47:29;;;;;;;6.33;5.13;;;;;;;2.28;79.44;96745.33;2173006;82;21740;-77
2020/12/28 06:50:30;;;;;;;6.00;4.77;;;;;;;2.32;79.53;96759.96;2172666;82;21126;-78
2020/12/28 06:53:31;;;;;;;7.07;5.87;;;;;;;2.35;79.20;96757.42;2172826;82;21277;-77
2020/12/28 06:56:32;;;;;;;7.93;5.77;;;;;;;2.37;79.40;96762.59;2159751;81;21610;-78
2020/12/28 06:59:33;;;;;;;6.03;4.93;;;;;;;2.43;79.49;96760.94;2148268;83;21130;-78
2020/12/28 07:02:34;;;;;;;6.30;4.93;;;;;;;2.47;79.20;96769.55;2148583;82;21265;-78
2020/12/28 07:05:36;;;;;;;6.80;5.20;;;;;;;2.48;79.13;96764.42;2148754;83;21464;-78
2020/12/28 07:08:39;;;;;;;7.27;5.33;;;;;;;2.51;79.00;96758.44;2148984;82;21218;-78
2020/12/28 07:11:40;;;;;;;6.50;5.77;;;;;;;2.50;78.97;96764.44;2149413;83;21146;-80
2020/12/28 07:14:41;;;;;;;7.27;5.90;;;;;;;2.48;78.64;96755.83;2150297;82;21559;-78
2020/12/28 07:17:42;;;;;;;5.17;4.60;;;;;;;2.48;78.71;96754.13;2149291;82;21138;-79
2020/12/28 07:20:44;;;;;;;7.20;5.47;;;;;;;2.49;78.50;96745.97;2149492;82;21234;-78
2020/12/28 07:23:44;;;;;;;6.53;5.30;;;;;;;2.51;78.63;96738.70;2149217;82;21107;-78
2020/12/28 07:26:47;;;;;;;9.33;5.90;;;;;;;2.56;78.67;96733.59;2149433;83;21238;-80
2020/12/28 07:29:48;;;;;;;7.90;6.20;;;;;;;2.60;78.90;96729.33;2149115;82;21242;-80
2020/12/28 07:32:49;;;;;;;6.37;5.13;;;;;;;2.63;78.67;96720.38;2148458;82;21237;-79
2020/12/28 07:35:50;;;;;;;9.00;4.83;;;;;;;2.67;78.82;96708.83;2148689;82;21127;-79
2020/12/28 07:38:51;;;;;;;6.03;4.27;;;;;;;2.74;78.91;96702.01;2148591;82;21107;-78
2020/12/28 07:41:52;;;;;;;6.73;5.07;;;;;;;2.84;78.95;96701.23;2148867;82;21305;-80
2020/12/28 07:44:53;;;;;;;7.17;5.23;;;;;;;2.92;78.68;96686.69;2148772;82;21122;-78
2020/12/28 07:47:55;;;;;;;6.70;5.30;;;;;;;3.01;78.75;96681.60;2148594;83;21242;-78
2020/12/28 07:50:56;;;;;;;6.70;4.47;;;;;;;3.08;78.59;96678.21;2148558;83;21249;-78
2020/12/28 07:53:57;;;;;;;7.93;5.40;;;;;;;3.16;78.78;96670.09;2149034;83;21123;-78
2020/12/28 07:56:58;;;;;;;8.60;5.10;;;;;;;3.25;78.70;96669.29;2161412;81;21272;-78
2020/12/28 07:59:59;;;;;;;6.80;5.57;;;;;;;3.36;78.70;96668.92;2171995;82;21249;-77
2020/12/28 08:03:00;;;;;;;6.77;4.93;;;;;;;3.46;78.41;96674.98;2172518;82;21870;-77
2020/12/28 08:06:01;;;;;;;9.73;5.43;;;;;;;3.57;78.34;96661.74;2172878;82;21244;-78
2020/12/28 08:09:02;;;;;;;6.20;5.17;;;;;;;3.69;78.21;96668.23;2173511;82;21229;-78
2020/12/28 08:12:03;;;;;;;7.60;4.93;;;;;;;3.81;78.08;96656.67;2172401;82;21126;-78
2020/12/28 08:15:05;;;;;;;6.70;5.13;;;;;;;3.92;77.92;96653.27;2172206;82;21249;-77
2020/12/28 08:18:08;;;;;;;9.40;5.10;;;;;;;4.03;77.65;96652.43;2172267;82;21162;-80
2020/12/28 08:21:09;;;;;;;6.47;5.10;;;;;;;4.14;77.46;96681.72;2172881;82;21145;-78
2020/12/28 08:24:10;;;;;;;7.07;5.23;;;;;;;4.27;77.14;96639.13;2172630;82;21229;-79
2020/12/28 08:27:11;;;;;;;5.33;4.83;;;;;;;4.38;76.87;96625.41;2172003;82;21245;-78
2020/12/28 08:30:12;;;;;;;6.43;4.90;;;;;;;4.48;76.47;96623.25;2172668;82;21146;-80
2020/12/28 08:33:13;;;;;;;5.37;4.87;;;;;;;4.57;76.09;96613.78;2173118;82;21229;-79
2020/12/28 08:36:14;;;;;;;6.90;5.40;;;;;;;4.67;75.91;96625.83;2172046;82;21134;-78
2020/12/28 08:39:15;;;;;;;5.57;4.97;;;;;;;4.78;75.69;96620.22;2172936;82;21101;-77
2020/12/28 08:42:16;;;;;;;6.63;5.07;;;;;;;4.88;75.37;96606.85;2172708;82;21153;-77
2020/12/28 08:45:17;;;;;;;8.23;5.00;;;;;;;4.93;75.12;96596.94;2172641;82;21322;-79
2020/12/28 08:48:19;;;;;;;6.63;5.10;;;;;;;5.02;74.88;96584.42;2172662;82;21241;-79
2020/12/28 08:51:20;;;;;;;7.83;5.13;;;;;;;5.11;74.27;96590.86;2171934;82;21121;-78
2020/12/28 08:54:20;;;;;;;7.90;5.00;;;;;;;5.21;74.44;96582.67;2172136;82;21257;-78
2020/12/28 08:57:22;;;;;;;5.47;4.87;;;;;;;5.27;73.88;96567.13;2172656;82;21306;-78
2020/12/28 09:00:23;;;;;;;6.50;4.90;;;;;;;5.41;73.41;96562.77;2170814;82;21133;-77
2020/12/28 09:03:24;;;;;;;7.20;4.97;;;;;;;5.41;73.41;96562.77;2170283;82;21515;-79
2020/12/28 09:06:25;;;;;;;7.17;4.93;;;;;;;5.53;73.02;96557.53;2170950;82;21091;-77
2020/12/28 09:09:26;;;;;;;7.13;5.43;;;;;;;5.53;73.02;96557.53;2171702;82;21416;-78
2020/12/28 09:12:27;;;;;;;5.70;5.10;;;;;;;5.59;72.93;96549.73;2171857;82;21129;-77
2020/12/28 09:15:28;;;;;;;7.13;5.50;;;;;;;5.64;72.84;96550.57;2171903;82;21727;-78
2020/12/28 09:18:29;;;;;;;7.60;6.10;;;;;;;5.69;72.28;96536.31;2171779;82;21122;-78
2020/12/28 09:21:31;;;;;;;8.57;5.97;;;;;;;5.72;72.00;96525.50;2170744;82;21960;-78
2020/12/28 09:24:32;;;;;;;8.20;6.20;;;;;;;5.77;72.49;96537.12;2171732;82;21122;-78
2020/12/28 09:27:33;;;;;;;7.30;5.90;;;;;;;5.78;72.36;96525.04;2171297;82;21287;-78
2020/12/28 09:30:34;;;;;;;7.73;6.60;;;;;;;5.79;71.87;96515.97;2171512;82;21087;-78
2020/12/28 09:33:35;;;;;;;7.43;6.57;;;;;;;5.84;72.00;96512.05;2171449;82;21110;-76
2020/12/28 09:36:38;;;;;;;8.33;6.70;;;;;;;5.88;71.61;96517.20;2171056;82;21125;-78
2020/12/28 09:39:39;;;;;;;10.03;7.10;;;;;;;5.87;71.35;96497.36;2171638;82;21091;-77
2020/12/28 09:42:40;;;;;;;7.57;6.40;;;;;;;5.86;71.52;96497.37;2171565;82;21292;-78
2020/12/28 09:45:41;;;;;;;7.40;5.90;;;;;;;5.87;71.67;96506.85;2171101;82;21122;-77
2020/12/28 09:48:42;;;;;;;7.60;6.57;;;;;;;5.87;71.25;96507.72;2171517;82;21126;-76
2020/12/28 09:51:43;;;;;;;8.80;6.60;;;;;;;5.90;71.69;96498.66;2171435;82;21102;-78
2020/12/28 09:54:45;;;;;;;8.93;6.67;;;;;;;5.96;71.61;96491.28;2171572;82;21239;-76
2020/12/28 09:57:47;;;;;;;10.37;6.97;;;;;;;5.97;71.38;96490.41;2171356;81;21162;-78
2020/12/28 10:00:48;;;;;;;8.27;7.27;;;;;;;5.98;71.32;96479.19;2162975;81;21318;-77
2020/12/28 10:03:50;;;;;;;8.23;6.93;;;;;;;6.05;71.29;96476.97;2161054;82;21233;-77
2020/12/28 10:06:51;;;;;;;8.27;7.00;;;;;;;6.05;71.02;96472.65;2161554;82;21264;-78
2020/12/28 10:09:52;;;;;;;9.27;6.87;;;;;;;6.10;71.05;96489.91;2161507;82;21099;-76
2020/12/28 10:12:53;;;;;;;8.97;7.17;;;;;;;6.11;70.75;96482.13;2161145;82;21110;-78
2020/12/28 10:15:55;;;;;;;9.43;7.87;;;;;;;6.16;71.02;96482.95;2161768;82;21233;-77
2020/12/28 10:18:56;;;;;;;8.50;6.90;;;;;;;6.21;70.65;96486.36;2162957;82;21295;-76
2020/12/28 10:21:57;;;;;;;8.17;6.30;;;;;;;6.26;70.95;96498.84;2162363;82;21148;-78
2020/12/28 10:24:58;;;;;;;8.90;6.60;;;;;;;6.33;70.40;96494.45;2162043;82;21118;-78
2020/12/28 10:28:00;;;;;;;7.67;6.03;;;;;;;6.37;70.50;96490.97;2161945;82;21833;-78
2020/12/28 10:31:01;;;;;;;11.50;6.70;;;;;;;6.41;70.36;96490.50;2162671;82;21245;-78
2020/12/28 10:34:02;;;;;;;12.13;7.07;;;;;;;6.45;70.07;96482.69;2161986;82;21424;-77
2020/12/28 10:37:03;;;;;;;12.30;6.90;;;;;;;6.50;70.38;96478.75;2161171;82;21233;-78
2020/12/28 10:40:06;;;;;;;8.50;6.60;;;;;;;6.56;69.91;96470.91;2162276;82;21232;-79
2020/12/28 10:43:07;;;;;;;8.57;6.93;;;;;;;6.58;69.86;96471.32;2162393;82;21315;-77
2020/12/28 10:46:08;;;;;;;7.87;6.60;;;;;;;6.59;69.81;96458.78;2161922;82;21225;-78
2020/12/28 10:49:09;;;;;;;11.00;8.20;;;;;;;6.60;69.42;96443.65;2162199;82;21225;-77
2020/12/28 10:52:10;;;;;;;9.57;7.03;;;;;;;6.63;69.89;96436.28;2162427;82;21150;-80
2020/12/28 10:55:11;;;;;;;7.47;6.10;;;;;;;6.65;69.48;96430.64;2162272;82;21261;-77
2020/12/28 10:58:13;;;;;;;10.97;7.00;;;;;;;6.60;69.31;96414.28;2163317;81;21586;-77
2020/12/28 11:01:14;;;;;;;7.63;6.40;;;;;;;6.51;69.66;96417.83;2172691;82;21236;-77
2020/12/28 11:04:15;;;;;;;8.17;5.97;;;;;;;6.39;69.66;96397.23;2176202;81;21253;-78
2020/12/28 11:07:16;;;;;;;7.87;6.00;;;;;;;6.28;69.89;96405.55;2172418;82;21138;-78
2020/12/28 11:10:17;;;;;;;6.73;5.33;;;;;;;6.18;69.96;96396.16;2172065;82;21404;-77
2020/12/28 11:13:18;;;;;;;13.13;6.23;;;;;;;6.10;69.96;96398.83;2172197;82;21459;-79
2020/12/28 11:16:19;;;;;;;5.97;5.37;;;;;;;6.03;70.26;96391.52;2172851;82;21145;-77
2020/12/28 11:19:21;;;;;;;6.23;5.07;;;;;;;6.02;70.14;96393.69;2173082;82;21102;-78
2020/12/28 11:22:22;;;;;;;6.63;4.33;;;;;;;6.02;70.25;96385.92;2173014;82;21277;-79
2020/12/28 11:25:23;;;;;;;7.53;4.70;;;;;;;6.03;69.94;96387.64;2172795;82;21118;-76
2020/12/28 11:28:24;;;;;;;4.87;3.47;;;;;;;6.12;69.79;96391.91;2172936;82;21454;-77
2020/12/28 11:31:25;;;;;;;5.63;3.47;;;;;;;6.20;69.22;96402.19;2173054;82;21539;-79
2020/12/28 11:34:27;;;;;;;5.43;3.20;;;;;;;6.33;68.59;96402.48;2172917;82;21241;-78
2020/12/28 11:37:28;;;;;;;4.47;2.87;;;;;;;6.33;68.59;96402.48;2172527;82;21241;-77
2020/12/28 11:40:29;;;;;;;4.37;2.80;;;;;;;6.40;68.23;96411.91;2171992;82;21588;-77
2020/12/28 11:43:30;;;;;;;6.80;3.40;;;;;;;6.48;67.99;96398.86;2173493;82;21186;-78
2020/12/28 11:46:31;;;;;;;3.90;2.57;;;;;;;6.48;67.99;96398.86;2172676;82;21110;-76
2020/12/28 11:49:32;;;;;;;2.97;2.60;;;;;;;6.52;67.25;96400.55;2171806;82;21858;-78
2020/12/28 11:52:33;;;;;;;5.90;3.10;;;;;;;6.54;67.33;96410.45;2172755;82;21252;-78
2020/12/28 11:58:55;;;;;;;4.37;2.67;;;;;;;6.67;66.60;96409.44;2165831;81;21515;-78
2020/12/28 12:01:56;;;;;;;3.57;2.77;;;;;;;6.57;66.53;96391.84;2149341;83;21483;-78
2020/12/28 12:04:58;;;;;;;4.97;3.03;;;;;;;6.49;66.81;96393.67;2149216;82;21253;-79
2020/12/28 12:07:59;;;;;;;2.90;2.40;;;;;;;6.40;66.88;96378.22;2148288;82;21616;-78
2020/12/28 12:11:00;;;;;;;3.77;2.30;;;;;;;6.33;66.61;96380.02;2148626;82;21250;-77
2020/12/28 12:14:01;;;;;;;3.63;2.53;;;;;;;6.23;67.14;96382.29;2148775;82;21234;-78
2020/12/28 12:17:02;;;;;;;4.90;2.93;;;;;;;6.18;66.92;96387.95;2148296;82;21534;-77
2020/12/28 12:20:03;;;;;;;4.93;3.10;;;;;;;6.10;67.51;96400.56;2148775;83;21249;-77
2020/12/28 12:23:04;;;;;;;4.10;2.50;;;;;;;6.05;67.32;96388.91;2149464;82;21297;-78
2020/12/28 12:26:05;;;;;;;3.90;3.00;;;;;;;6.05;67.32;96388.91;2148811;82;21296;-78
2020/12/28 12:29:07;;;;;;;3.87;2.90;;;;;;;6.09;67.29;96385.89;2149389;82;21245;-78
2020/12/28 12:32:10;;;;;;;3.40;2.93;;;;;;;6.09;67.48;96391.07;2148593;82;21254;-78
2020/12/28 12:35:11;;;;;;;4.10;3.07;;;;;;;6.06;66.80;96365.59;2148771;82;21245;-78
2020/12/28 12:38:12;;;;;;;4.20;3.40;;;;;;;6.06;67.28;96363.00;2147933;82;21231;-77
2020/12/28 12:41:14;;;;;;;4.60;3.50;;;;;;;6.05;67.24;96360.43;2148179;82;21584;-77
2020/12/28 12:44:15;;;;;;;5.77;3.93;;;;;;;6.05;66.97;96343.59;2148867;82;21306;-77
2020/12/28 12:47:16;;;;;;;4.00;3.53;;;;;;;6.09;67.22;96343.16;2148675;82;21107;-78
2020/12/28 12:50:17;;;;;;;4.90;3.30;;;;;;;6.08;67.18;96352.66;2148543;82;21392;-79
2020/12/28 12:53:18;;;;;;;4.77;3.67;;;;;;;6.06;67.33;96349.20;2148101;82;21269;-78
2020/12/28 12:56:19;;;;;;;5.00;3.43;;;;;;;6.03;66.99;96343.61;2147913;82;21254;-78
2020/12/28 12:59:20;;;;;;;5.23;3.60;;;;;;;5.98;66.92;96342.80;2158880;81;21495;-78
2020/12/28 13:02:21;;;;;;;5.17;3.90;;;;;;;5.95;67.16;96340.24;2180392;81;21273;-78
2020/12/28 13:05:22;;;;;;;5.03;3.67;;;;;;;5.93;67.47;96343.72;2170640;82;21265;-78
2020/12/28 13:08:23;;;;;;;5.63;4.07;;;;;;;5.92;67.59;96346.75;2169705;82;21896;-78
2020/12/28 13:11:24;;;;;;;6.70;4.20;;;;;;;5.91;67.67;96361.00;2169800;82;21241;-77
2020/12/28 13:14:26;;;;;;;5.90;3.80;;;;;;;5.89;67.57;96349.77;2170620;82;21933;-77
2020/12/28 13:17:27;;;;;;;7.03;3.60;;;;;;;5.87;67.68;96356.25;2170492;82;21126;-78
2020/12/28 13:20:28;;;;;;;4.57;3.63;;;;;;;5.85;67.77;96361.03;2171430;82;21260;-78
2020/12/28 13:23:29;;;;;;;4.90;4.00;;;;;;;5.83;67.80;96367.95;2170967;82;21292;-78
2020/12/28 13:26:30;;;;;;;5.33;4.20;;;;;;;5.80;67.76;96371.42;2171222;82;21094;-77
2020/12/28 13:29:31;;;;;;;6.50;4.10;;;;;;;5.76;67.93;96383.53;2171295;82;21605;-77
2020/12/28 13:32:32;;;;;;;4.30;2.97;;;;;;;5.71;68.07;96380.56;2172039;82;21150;-78
2020/12/28 13:35:33;;;;;;;5.70;4.17;;;;;;;5.68;68.08;96380.16;2172009;82;21249;-78
2020/12/28 13:38:34;;;;;;;5.60;4.13;;;;;;;5.63;68.19;96397.45;2171703;82;21889;-77
2020/12/28 13:41:35;;;;;;;7.03;4.67;;;;;;;5.58;68.38;96404.39;2170706;82;21603;-77
2020/12/28 13:44:36;;;;;;;4.83;4.10;;;;;;;5.54;68.48;96413.05;2171785;82;21114;-78
2020/12/28 13:47:37;;;;;;;9.67;5.10;;;;;;;5.49;68.59;96421.28;2171731;82;21253;-79
2020/12/28 13:50:38;;;;;;;9.53;4.30;;;;;;;5.46;68.73;96423.88;2172180;82;21750;-77
2020/12/28 13:53:40;;;;;;;7.00;4.53;;;;;;;5.41;68.71;96416.59;2172010;82;21268;-77
2020/12/28 13:56:41;;;;;;;7.87;5.20;;;;;;;5.38;68.86;96425.23;2172760;82;21419;-79
2020/12/28 13:59:42;;;;;;;8.63;5.83;;;;;;;5.33;68.88;96416.64;2177041;81;21555;-78
2020/12/28 14:02:43;;;;;;;9.30;6.20;;;;;;;5.31;68.92;96433.03;2184462;81;21291;-77
2020/12/28 14:05:44;;;;;;;8.67;4.90;;;;;;;5.26;68.96;96424.45;2182896;81;21231;-77
2020/12/28 14:08:45;;;;;;;7.43;5.10;;;;;;;5.24;69.07;96433.94;2181710;81;21570;-78
2020/12/28 14:11:46;;;;;;;10.00;5.00;;;;;;;5.22;69.06;96445.59;2170985;81;21098;-78
2020/12/28 14:14:47;;;;;;;5.67;4.43;;;;;;;5.20;69.10;96460.25;2171506;82;21114;-77
2020/12/28 14:17:48;;;;;;;7.23;4.73;;;;;;;5.18;69.17;96445.58;2171849;82;21575;-79
2020/12/28 14:20:49;;;;;;;5.80;4.80;;;;;;;5.15;69.20;96433.96;2172930;82;21102;-78
2020/12/28 14:23:50;;;;;;;8.17;5.00;;;;;;;5.11;69.22;96437.86;2172481;82;21827;-77
2020/12/28 14:26:51;;;;;;;7.80;4.80;;;;;;;5.09;69.26;96434.85;2172062;82;21090;-79